sensor_id;sensor_type;location;lat;lon;timestamp;temperature;humidity
42755;DHT22;28407;51.830;5.684;2023-05-01T00:01:47;14.10;65.60
42755;DHT22;28407;51.830;5.684;2023-05-01T00:03:48;14.00;65.50
42755;DHT22;28407;51.830;5.684;2023-05-01T00:05:48;14.10;65.60
42755;DHT22;28407;51.830;5.684;2023-05-01T00:07:49;14.00;65.50
42755;DHT22;28407;51.830;5.684;2023-05-01T00:09:50;14.10;65.50
42755;DHT22;28407;51.830;5.684;2023-05-01T00:11:51;14.00;65.50
42755;DHT22;28407;51.830;5.684;2023-05-01T00:13:51;14.00;65.60
42755;DHT22;28407;51.830;5.684;2023-05-01T00:15:53;14.00;65.50
42755;DHT22;28407;51.830;5.684;2023-05-01T00:17:55;14.00;65.60
42755;DHT22;28407;51.830;5.684;2023-05-01T00:19:55;14.00;65.60
42755;DHT22;28407;51.830;5.684;2023-05-01T00:21:56;14.00;65.60
42755;DHT22;28407;51.830;5.684;2023-05-01T00:23:57;14.00;65.50
42755;DHT22;28407;51.830;5.684;2023-05-01T00:25:58;14.00;65.50
42755;DHT22;28407;51.830;5.684;2023-05-01T00:27:58;14.00;65.50
42755;DHT22;28407;51.830;5.684;2023-05-01T00:29:59;14.00;65.50
42755;DHT22;28407;51.830;5.684;2023-05-01T00:31:59;14.00;65.40
42755;DHT22;28407;51.830;5.684;2023-05-01T00:34:00;14.00;65.40
42755;DHT22;28407;51.830;5.684;2023-05-01T00:36:01;14.00;65.40
42755;DHT22;28407;51.830;5.684;2023-05-01T00:38:02;14.00;65.50
42755;DHT22;28407;51.830;5.684;2023-05-01T00:40:03;14.00;65.50
42755;DHT22;28407;51.830;5.684;2023-05-01T00:42:04;14.00;65.60
42755;DHT22;28407;51.830;5.684;2023-05-01T00:44:05;14.00;65.60
42755;DHT22;28407;51.830;5.684;2023-05-01T00:46:06;14.00;65.60
42755;DHT22;28407;51.830;5.684;2023-05-01T00:48:08;13.90;65.70
42755;DHT22;28407;51.830;5.684;2023-05-01T00:50:09;13.90;65.70
42755;DHT22;28407;51.830;5.684;2023-05-01T00:52:10;13.90;65.70
42755;DHT22;28407;51.830;5.684;2023-05-01T00:54:11;13.90;65.80
42755;DHT22;28407;51.830;5.684;2023-05-01T00:56:14;13.80;65.80
42755;DHT22;28407;51.830;5.684;2023-05-01T00:58:16;13.90;65.90
42755;DHT22;28407;51.830;5.684;2023-05-01T01:00:17;13.90;66.00
42755;DHT22;28407;51.830;5.684;2023-05-01T01:02:18;13.80;66.00
42755;DHT22;28407;51.830;5.684;2023-05-01T01:04:19;13.80;66.00
42755;DHT22;28407;51.830;5.684;2023-05-01T01:08:45;13.80;66.20
42755;DHT22;28407;51.830;5.684;2023-05-01T01:10:54;13.80;66.30
42755;DHT22;28407;51.830;5.684;2023-05-01T01:13:10;13.80;66.30
42755;DHT22;28407;51.830;5.684;2023-05-01T01:15:33;13.70;66.40
42755;DHT22;28407;51.830;5.684;2023-05-01T01:22:20;13.80;66.60
42755;DHT22;28407;51.830;5.684;2023-05-01T01:28:09;13.80;66.60
42755;DHT22;28407;51.830;5.684;2023-05-01T01:32:19;13.80;66.60
42755;DHT22;28407;51.830;5.684;2023-05-01T01:34:39;13.80;66.60
42755;DHT22;28407;51.830;5.684;2023-05-01T01:36:53;13.80;66.50
42755;DHT22;28407;51.830;5.684;2023-05-01T01:39:50;13.80;66.40
42755;DHT22;28407;51.830;5.684;2023-05-01T01:41:32;13.80;66.40
42755;DHT22;28407;51.830;5.684;2023-05-01T01:43:38;13.80;66.30
42755;DHT22;28407;51.830;5.684;2023-05-01T01:45:52;13.80;66.30
42755;DHT22;28407;51.830;5.684;2023-05-01T01:47:56;13.80;66.30
42755;DHT22;28407;51.830;5.684;2023-05-01T01:50:00;13.80;66.30
42755;DHT22;28407;51.830;5.684;2023-05-01T01:52:05;13.80;66.30
42755;DHT22;28407;51.830;5.684;2023-05-01T01:54:09;13.80;66.30
42755;DHT22;28407;51.830;5.684;2023-05-01T01:56:11;13.80;66.40
42755;DHT22;28407;51.830;5.684;2023-05-01T01:58:15;13.80;66.40
42755;DHT22;28407;51.830;5.684;2023-05-01T02:00:19;13.80;66.40
42755;DHT22;28407;51.830;5.684;2023-05-01T02:02:23;13.80;66.40
42755;DHT22;28407;51.830;5.684;2023-05-01T02:04:27;13.80;66.30
42755;DHT22;28407;51.830;5.684;2023-05-01T02:06:32;13.80;66.30
42755;DHT22;28407;51.830;5.684;2023-05-01T02:08:35;13.80;66.30
42755;DHT22;28407;51.830;5.684;2023-05-01T02:10:37;13.80;66.20
42755;DHT22;28407;51.830;5.684;2023-05-01T02:12:43;13.80;66.20
42755;DHT22;28407;51.830;5.684;2023-05-01T02:14:47;13.80;66.10
42755;DHT22;28407;51.830;5.684;2023-05-01T02:16:48;13.80;66.10
42755;DHT22;28407;51.830;5.684;2023-05-01T02:18:50;13.80;66.10
42755;DHT22;28407;51.830;5.684;2023-05-01T02:20:54;13.80;66.10
42755;DHT22;28407;51.830;5.684;2023-05-01T02:22:56;13.80;66.10
42755;DHT22;28407;51.830;5.684;2023-05-01T02:24:59;13.80;66.10
42755;DHT22;28407;51.830;5.684;2023-05-01T02:27:03;13.80;66.00
42755;DHT22;28407;51.830;5.684;2023-05-01T02:29:06;13.80;65.90
42755;DHT22;28407;51.830;5.684;2023-05-01T02:31:08;13.80;65.90
42755;DHT22;28407;51.830;5.684;2023-05-01T02:33:09;13.80;65.90
42755;DHT22;28407;51.830;5.684;2023-05-01T02:35:10;13.80;65.90
42755;DHT22;28407;51.830;5.684;2023-05-01T02:37:11;13.80;65.90
42755;DHT22;28407;51.830;5.684;2023-05-01T02:39:13;13.80;65.90
42755;DHT22;28407;51.830;5.684;2023-05-01T02:41:14;13.80;65.90
42755;DHT22;28407;51.830;5.684;2023-05-01T02:43:18;13.80;65.90
42755;DHT22;28407;51.830;5.684;2023-05-01T02:45:21;13.80;65.80
42755;DHT22;28407;51.830;5.684;2023-05-01T02:47:23;13.80;65.80
42755;DHT22;28407;51.830;5.684;2023-05-01T02:49:26;13.80;65.80
42755;DHT22;28407;51.830;5.684;2023-05-01T02:51:28;13.70;65.70
42755;DHT22;28407;51.830;5.684;2023-05-01T02:53:29;13.80;65.70
42755;DHT22;28407;51.830;5.684;2023-05-01T02:55:38;13.80;65.70
42755;DHT22;28407;51.830;5.684;2023-05-01T02:57:38;13.80;65.70
42755;DHT22;28407;51.830;5.684;2023-05-01T02:59:39;13.70;65.60
42755;DHT22;28407;51.830;5.684;2023-05-01T03:01:40;13.70;65.50
42755;DHT22;28407;51.830;5.684;2023-05-01T03:03:41;13.70;65.50
42755;DHT22;28407;51.830;5.684;2023-05-01T03:05:42;13.70;65.50
42755;DHT22;28407;51.830;5.684;2023-05-01T03:07:43;13.70;65.50
42755;DHT22;28407;51.830;5.684;2023-05-01T03:09:43;13.80;65.50
42755;DHT22;28407;51.830;5.684;2023-05-01T03:11:44;13.80;65.50
42755;DHT22;28407;51.830;5.684;2023-05-01T03:13:45;13.70;65.40
42755;DHT22;28407;51.830;5.684;2023-05-01T03:15:46;13.70;65.30
42755;DHT22;28407;51.830;5.684;2023-05-01T03:17:47;13.70;65.30
42755;DHT22;28407;51.830;5.684;2023-05-01T03:19:48;13.70;65.30
42755;DHT22;28407;51.830;5.684;2023-05-01T03:21:49;13.70;65.30
42755;DHT22;28407;51.830;5.684;2023-05-01T03:23:50;13.70;65.30
42755;DHT22;28407;51.830;5.684;2023-05-01T03:25:51;13.70;65.30
42755;DHT22;28407;51.830;5.684;2023-05-01T03:27:52;13.70;65.30
42755;DHT22;28407;51.830;5.684;2023-05-01T03:29:52;13.70;65.30
42755;DHT22;28407;51.830;5.684;2023-05-01T03:31:53;13.70;65.30
42755;DHT22;28407;51.830;5.684;2023-05-01T03:33:54;13.70;65.30
42755;DHT22;28407;51.830;5.684;2023-05-01T03:35:59;13.70;65.40
42755;DHT22;28407;51.830;5.684;2023-05-01T03:38:01;13.70;65.40
42755;DHT22;28407;51.830;5.684;2023-05-01T03:40:20;13.70;65.40
42755;DHT22;28407;51.830;5.684;2023-05-01T03:42:41;13.60;65.30
42755;DHT22;28407;51.830;5.684;2023-05-01T03:44:49;13.60;65.30
42755;DHT22;28407;51.830;5.684;2023-05-01T03:46:51;13.60;65.30
42755;DHT22;28407;51.830;5.684;2023-05-01T03:48:57;13.60;65.30
42755;DHT22;28407;51.830;5.684;2023-05-01T03:50:59;13.60;65.30
42755;DHT22;28407;51.830;5.684;2023-05-01T03:53:00;13.60;65.30
42755;DHT22;28407;51.830;5.684;2023-05-01T03:55:02;13.60;65.30
42755;DHT22;28407;51.830;5.684;2023-05-01T03:57:08;13.60;65.30
42755;DHT22;28407;51.830;5.684;2023-05-01T03:59:09;13.60;65.30
42755;DHT22;28407;51.830;5.684;2023-05-01T04:01:10;13.60;65.30
42755;DHT22;28407;51.830;5.684;2023-05-01T04:03:15;13.60;65.30
42755;DHT22;28407;51.830;5.684;2023-05-01T04:05:17;13.60;65.30
42755;DHT22;28407;51.830;5.684;2023-05-01T04:07:23;13.60;65.30
42755;DHT22;28407;51.830;5.684;2023-05-01T04:09:24;13.50;65.20
42755;DHT22;28407;51.830;5.684;2023-05-01T04:11:25;13.60;65.30
42755;DHT22;28407;51.830;5.684;2023-05-01T04:13:26;13.50;65.30
42755;DHT22;28407;51.830;5.684;2023-05-01T04:15:28;13.50;65.30
42755;DHT22;28407;51.830;5.684;2023-05-01T04:17:29;13.60;65.30
42755;DHT22;28407;51.830;5.684;2023-05-01T04:19:30;13.60;65.30
42755;DHT22;28407;51.830;5.684;2023-05-01T04:21:32;13.50;65.20
42755;DHT22;28407;51.830;5.684;2023-05-01T04:23:33;13.60;65.30
42755;DHT22;28407;51.830;5.684;2023-05-01T04:25:35;13.50;65.30
42755;DHT22;28407;51.830;5.684;2023-05-01T04:27:41;13.50;66.00
42755;DHT22;28407;51.830;5.684;2023-05-01T04:29:41;13.50;65.30
42755;DHT22;28407;51.830;5.684;2023-05-01T04:31:42;13.50;65.50
42755;DHT22;28407;51.830;5.684;2023-05-01T04:33:43;13.50;65.50
42755;DHT22;28407;51.830;5.684;2023-05-01T04:35:44;13.50;65.50
42755;DHT22;28407;51.830;5.684;2023-05-01T04:37:44;13.50;65.50
42755;DHT22;28407;51.830;5.684;2023-05-01T04:39:45;13.50;65.50
42755;DHT22;28407;51.830;5.684;2023-05-01T04:41:46;13.40;65.40
42755;DHT22;28407;51.830;5.684;2023-05-01T04:43:46;13.40;65.40
42755;DHT22;28407;51.830;5.684;2023-05-01T04:45:51;13.40;65.40
42755;DHT22;28407;51.830;5.684;2023-05-01T04:47:51;13.50;66.10
42755;DHT22;28407;51.830;5.684;2023-05-01T04:49:52;13.40;65.40
42755;DHT22;28407;51.830;5.684;2023-05-01T04:51:52;13.50;65.40
42755;DHT22;28407;51.830;5.684;2023-05-01T04:53:55;13.50;65.40
42755;DHT22;28407;51.830;5.684;2023-05-01T04:55:59;13.40;65.40
42755;DHT22;28407;51.830;5.684;2023-05-01T04:58:00;13.50;65.40
42755;DHT22;28407;51.830;5.684;2023-05-01T05:00:03;13.50;65.40
42755;DHT22;28407;51.830;5.684;2023-05-01T05:02:07;13.50;65.40
42755;DHT22;28407;51.830;5.684;2023-05-01T05:04:08;13.50;65.40
42755;DHT22;28407;51.830;5.684;2023-05-01T05:06:09;13.40;65.40
42755;DHT22;28407;51.830;5.684;2023-05-01T05:08:10;13.40;65.30
42755;DHT22;28407;51.830;5.684;2023-05-01T05:10:13;13.40;65.30
42755;DHT22;28407;51.830;5.684;2023-05-01T05:12:18;13.50;65.40
42755;DHT22;28407;51.830;5.684;2023-05-01T05:14:19;13.50;65.40
42755;DHT22;28407;51.830;5.684;2023-05-01T05:16:21;13.50;65.40
42755;DHT22;28407;51.830;5.684;2023-05-01T05:18:21;13.50;65.30
42755;DHT22;28407;51.830;5.684;2023-05-01T05:20:22;13.50;65.30
42755;DHT22;28407;51.830;5.684;2023-05-01T05:22:23;13.50;65.40
42755;DHT22;28407;51.830;5.684;2023-05-01T05:25:04;13.50;65.30
42755;DHT22;28407;51.830;5.684;2023-05-01T05:27:06;13.50;65.30
42755;DHT22;28407;51.830;5.684;2023-05-01T05:29:06;13.50;65.40
42755;DHT22;28407;51.830;5.684;2023-05-01T05:31:07;13.50;65.40
42755;DHT22;28407;51.830;5.684;2023-05-01T05:33:09;13.50;65.40
42755;DHT22;28407;51.830;5.684;2023-05-01T05:35:10;13.50;65.40
42755;DHT22;28407;51.830;5.684;2023-05-01T05:37:10;13.50;65.40
42755;DHT22;28407;51.830;5.684;2023-05-01T05:39:20;13.50;65.40
42755;DHT22;28407;51.830;5.684;2023-05-01T05:41:23;13.50;65.50
42755;DHT22;28407;51.830;5.684;2023-05-01T05:43:27;13.50;65.50
42755;DHT22;28407;51.830;5.684;2023-05-01T05:45:28;13.50;65.50
42755;DHT22;28407;51.830;5.684;2023-05-01T05:47:29;13.50;65.50
42755;DHT22;28407;51.830;5.684;2023-05-01T05:49:30;13.50;65.50
42755;DHT22;28407;51.830;5.684;2023-05-01T05:51:30;13.50;65.50
42755;DHT22;28407;51.830;5.684;2023-05-01T05:53:31;13.50;65.50
42755;DHT22;28407;51.830;5.684;2023-05-01T05:55:32;13.50;65.50
42755;DHT22;28407;51.830;5.684;2023-05-01T05:57:36;13.50;65.50
42755;DHT22;28407;51.830;5.684;2023-05-01T05:59:39;13.50;65.50
42755;DHT22;28407;51.830;5.684;2023-05-01T06:01:39;13.60;65.60
42755;DHT22;28407;51.830;5.684;2023-05-01T06:03:42;13.50;65.50
42755;DHT22;28407;51.830;5.684;2023-05-01T06:05:43;13.50;65.60
42755;DHT22;28407;51.830;5.684;2023-05-01T06:07:44;13.60;65.70
42755;DHT22;28407;51.830;5.684;2023-05-01T06:09:44;13.50;65.60
42755;DHT22;28407;51.830;5.684;2023-05-01T06:11:46;13.50;65.60
42755;DHT22;28407;51.830;5.684;2023-05-01T06:13:47;13.50;65.50
42755;DHT22;28407;51.830;5.684;2023-05-01T06:15:48;13.60;65.60
42755;DHT22;28407;51.830;5.684;2023-05-01T06:17:49;13.50;65.50
42755;DHT22;28407;51.830;5.684;2023-05-01T06:19:50;13.60;65.50
42755;DHT22;28407;51.830;5.684;2023-05-01T06:21:54;13.60;65.50
42755;DHT22;28407;51.830;5.684;2023-05-01T06:23:54;13.60;65.40
42755;DHT22;28407;51.830;5.684;2023-05-01T06:25:58;13.60;65.50
42755;DHT22;28407;51.830;5.684;2023-05-01T06:27:59;13.60;65.50
42755;DHT22;28407;51.830;5.684;2023-05-01T06:30:00;13.60;65.50
42755;DHT22;28407;51.830;5.684;2023-05-01T06:32:01;13.70;65.50
42755;DHT22;28407;51.830;5.684;2023-05-01T06:34:02;13.70;65.50
42755;DHT22;28407;51.830;5.684;2023-05-01T06:36:10;13.70;65.50
42755;DHT22;28407;51.830;5.684;2023-05-01T06:38:10;13.70;65.60
42755;DHT22;28407;51.830;5.684;2023-05-01T06:40:11;13.70;65.50
42755;DHT22;28407;51.830;5.684;2023-05-01T06:42:12;13.80;65.50
42755;DHT22;28407;51.830;5.684;2023-05-01T06:44:15;13.80;65.40
42755;DHT22;28407;51.830;5.684;2023-05-01T06:46:16;13.80;65.50
42755;DHT22;28407;51.830;5.684;2023-05-01T06:48:16;13.80;65.50
42755;DHT22;28407;51.830;5.684;2023-05-01T06:50:17;13.80;65.50
42755;DHT22;28407;51.830;5.684;2023-05-01T06:52:18;13.80;65.50
42755;DHT22;28407;51.830;5.684;2023-05-01T06:54:18;13.90;65.50
42755;DHT22;28407;51.830;5.684;2023-05-01T06:56:19;13.90;65.50
42755;DHT22;28407;51.830;5.684;2023-05-01T06:58:20;13.90;65.40
42755;DHT22;28407;51.830;5.684;2023-05-01T07:00:21;13.90;65.50
42755;DHT22;28407;51.830;5.684;2023-05-01T07:02:22;13.90;65.50
42755;DHT22;28407;51.830;5.684;2023-05-01T07:04:22;13.90;65.50
42755;DHT22;28407;51.830;5.684;2023-05-01T07:06:23;13.90;65.50
42755;DHT22;28407;51.830;5.684;2023-05-01T07:08:24;14.00;65.50
42755;DHT22;28407;51.830;5.684;2023-05-01T07:10:24;14.00;65.50
42755;DHT22;28407;51.830;5.684;2023-05-01T07:12:25;14.00;65.40
42755;DHT22;28407;51.830;5.684;2023-05-01T07:14:26;14.10;65.40
42755;DHT22;28407;51.830;5.684;2023-05-01T07:16:26;14.10;65.40
42755;DHT22;28407;51.830;5.684;2023-05-01T07:18:27;14.10;65.40
42755;DHT22;28407;51.830;5.684;2023-05-01T07:20:28;14.10;65.40
42755;DHT22;28407;51.830;5.684;2023-05-01T07:22:28;14.10;65.40
42755;DHT22;28407;51.830;5.684;2023-05-01T07:24:29;14.20;65.50
42755;DHT22;28407;51.830;5.684;2023-05-01T07:26:30;14.20;65.40
42755;DHT22;28407;51.830;5.684;2023-05-01T07:28:31;14.20;65.30
42755;DHT22;28407;51.830;5.684;2023-05-01T07:30:31;14.20;65.30
42755;DHT22;28407;51.830;5.684;2023-05-01T07:32:32;14.30;65.40
42755;DHT22;28407;51.830;5.684;2023-05-01T07:34:33;14.30;65.30
42755;DHT22;28407;51.830;5.684;2023-05-01T07:36:34;14.30;65.30
42755;DHT22;28407;51.830;5.684;2023-05-01T07:38:34;14.40;65.40
42755;DHT22;28407;51.830;5.684;2023-05-01T07:40:35;14.30;65.30
42755;DHT22;28407;51.830;5.684;2023-05-01T07:42:36;14.40;65.50
42755;DHT22;28407;51.830;5.684;2023-05-01T07:44:36;14.40;65.40
42755;DHT22;28407;51.830;5.684;2023-05-01T07:46:37;14.40;65.40
42755;DHT22;28407;51.830;5.684;2023-05-01T07:48:38;14.50;65.40
42755;DHT22;28407;51.830;5.684;2023-05-01T07:50:38;14.50;65.40
42755;DHT22;28407;51.830;5.684;2023-05-01T07:52:39;14.50;65.40
42755;DHT22;28407;51.830;5.684;2023-05-01T07:54:39;14.50;65.40
42755;DHT22;28407;51.830;5.684;2023-05-01T07:56:41;14.50;65.40
42755;DHT22;28407;51.830;5.684;2023-05-01T07:58:41;14.60;65.50
42755;DHT22;28407;51.830;5.684;2023-05-01T08:00:43;14.60;65.40
42755;DHT22;28407;51.830;5.684;2023-05-01T08:02:44;14.60;65.40
42755;DHT22;28407;51.830;5.684;2023-05-01T08:04:45;14.70;65.40
42755;DHT22;28407;51.830;5.684;2023-05-01T08:06:50;14.70;65.40
42755;DHT22;28407;51.830;5.684;2023-05-01T08:08:51;14.70;65.40
42755;DHT22;28407;51.830;5.684;2023-05-01T08:10:51;14.80;65.40
42755;DHT22;28407;51.830;5.684;2023-05-01T08:12:52;14.80;65.40
42755;DHT22;28407;51.830;5.684;2023-05-01T08:14:53;14.80;65.40
42755;DHT22;28407;51.830;5.684;2023-05-01T08:16:54;14.80;65.40
42755;DHT22;28407;51.830;5.684;2023-05-01T08:18:54;14.80;65.40
42755;DHT22;28407;51.830;5.684;2023-05-01T08:20:55;14.90;65.50
42755;DHT22;28407;51.830;5.684;2023-05-01T08:22:55;14.90;66.10
42755;DHT22;28407;51.830;5.684;2023-05-01T08:24:56;15.00;65.40
42755;DHT22;28407;51.830;5.684;2023-05-01T08:26:57;15.00;65.30
42755;DHT22;28407;51.830;5.684;2023-05-01T08:28:58;15.00;65.30
42755;DHT22;28407;51.830;5.684;2023-05-01T08:30:58;15.10;65.30
42755;DHT22;28407;51.830;5.684;2023-05-01T08:32:59;15.10;65.20
42755;DHT22;28407;51.830;5.684;2023-05-01T08:34:59;15.20;65.20
42755;DHT22;28407;51.830;5.684;2023-05-01T08:37:00;15.20;65.70
42755;DHT22;28407;51.830;5.684;2023-05-01T08:39:01;15.30;65.00
42755;DHT22;28407;51.830;5.684;2023-05-01T08:41:03;15.20;64.90
42755;DHT22;28407;51.830;5.684;2023-05-01T08:43:04;15.30;65.00
42755;DHT22;28407;51.830;5.684;2023-05-01T08:45:08;15.30;64.90
42755;DHT22;28407;51.830;5.684;2023-05-01T08:47:17;15.30;64.90
42755;DHT22;28407;51.830;5.684;2023-05-01T08:49:20;15.40;64.80
42755;DHT22;28407;51.830;5.684;2023-05-01T08:51:22;15.40;64.60
42755;DHT22;28407;51.830;5.684;2023-05-01T08:53:23;15.50;64.60
42755;DHT22;28407;51.830;5.684;2023-05-01T08:55:25;15.50;64.50
42755;DHT22;28407;51.830;5.684;2023-05-01T08:57:29;15.60;64.50
42755;DHT22;28407;51.830;5.684;2023-05-01T08:59:35;15.60;64.30
42755;DHT22;28407;51.830;5.684;2023-05-01T09:01:37;15.70;64.30
42755;DHT22;28407;51.830;5.684;2023-05-01T09:03:37;15.70;64.10
42755;DHT22;28407;51.830;5.684;2023-05-01T09:05:38;15.80;64.10
42755;DHT22;28407;51.830;5.684;2023-05-01T09:07:40;15.80;64.00
42755;DHT22;28407;51.830;5.684;2023-05-01T09:09:42;15.80;63.80
42755;DHT22;28407;51.830;5.684;2023-05-01T09:11:43;15.90;63.80
42755;DHT22;28407;51.830;5.684;2023-05-01T09:13:45;16.00;63.80
42755;DHT22;28407;51.830;5.684;2023-05-01T09:15:45;16.00;63.60
42755;DHT22;28407;51.830;5.684;2023-05-01T09:17:46;16.10;63.60
42755;DHT22;28407;51.830;5.684;2023-05-01T09:19:48;16.10;63.60
42755;DHT22;28407;51.830;5.684;2023-05-01T09:21:49;16.20;63.50
42755;DHT22;28407;51.830;5.684;2023-05-01T09:23:50;16.30;63.40
42755;DHT22;28407;51.830;5.684;2023-05-01T09:25:51;16.30;63.40
42755;DHT22;28407;51.830;5.684;2023-05-01T09:27:52;16.40;63.40
42755;DHT22;28407;51.830;5.684;2023-05-01T09:29:53;16.50;63.20
42755;DHT22;28407;51.830;5.684;2023-05-01T09:32:11;16.50;63.00
42755;DHT22;28407;51.830;5.684;2023-05-01T09:34:12;16.60;62.80
42755;DHT22;28407;51.830;5.684;2023-05-01T09:36:16;16.60;62.60
42755;DHT22;28407;51.830;5.684;2023-05-01T09:38:24;16.70;62.50
42755;DHT22;28407;51.830;5.684;2023-05-01T09:40:28;16.80;62.40
42755;DHT22;28407;51.830;5.684;2023-05-01T09:42:29;16.80;62.10
42755;DHT22;28407;51.830;5.684;2023-05-01T09:44:39;16.90;62.00
42755;DHT22;28407;51.830;5.684;2023-05-01T09:46:41;17.00;61.70
42755;DHT22;28407;51.830;5.684;2023-05-01T09:50:54;17.10;61.30
42755;DHT22;28407;51.830;5.684;2023-05-01T09:52:55;17.20;61.30
42755;DHT22;28407;51.830;5.684;2023-05-01T09:55:15;17.20;61.10
42755;DHT22;28407;51.830;5.684;2023-05-01T09:57:16;17.30;60.80
42755;DHT22;28407;51.830;5.684;2023-05-01T09:59:18;17.40;60.80
42755;DHT22;28407;51.830;5.684;2023-05-01T10:01:43;17.40;60.80
42755;DHT22;28407;51.830;5.684;2023-05-01T10:03:44;17.50;60.70
42755;DHT22;28407;51.830;5.684;2023-05-01T10:05:45;17.60;60.50
42755;DHT22;28407;51.830;5.684;2023-05-01T10:08:00;17.60;60.40
42755;DHT22;28407;51.830;5.684;2023-05-01T10:10:20;17.70;60.40
42755;DHT22;28407;51.830;5.684;2023-05-01T10:12:28;17.80;60.40
42755;DHT22;28407;51.830;5.684;2023-05-01T10:14:29;17.90;60.30
42755;DHT22;28407;51.830;5.684;2023-05-01T10:16:34;18.00;60.30
42755;DHT22;28407;51.830;5.684;2023-05-01T10:18:35;18.10;60.20
42755;DHT22;28407;51.830;5.684;2023-05-01T10:20:37;18.30;60.10
42755;DHT22;28407;51.830;5.684;2023-05-01T10:22:40;18.40;59.80
42755;DHT22;28407;51.830;5.684;2023-05-01T10:24:44;18.50;59.50
42755;DHT22;28407;51.830;5.684;2023-05-01T10:26:47;18.60;59.90
42755;DHT22;28407;51.830;5.684;2023-05-01T10:28:48;18.70;59.30
42755;DHT22;28407;51.830;5.684;2023-05-01T10:30:49;18.80;59.10
42755;DHT22;28407;51.830;5.684;2023-05-01T10:32:50;18.80;59.70
42755;DHT22;28407;51.830;5.684;2023-05-01T10:34:56;18.90;59.10
42755;DHT22;28407;51.830;5.684;2023-05-01T10:37:01;18.90;59.60
42755;DHT22;28407;51.830;5.684;2023-05-01T10:39:02;18.90;58.80
42755;DHT22;28407;51.830;5.684;2023-05-01T10:41:03;19.00;58.70
42755;DHT22;28407;51.830;5.684;2023-05-01T10:43:22;19.00;58.60
42755;DHT22;28407;51.830;5.684;2023-05-01T10:45:28;19.10;58.30
42755;DHT22;28407;51.830;5.684;2023-05-01T10:47:51;19.10;58.30
42755;DHT22;28407;51.830;5.684;2023-05-01T10:50:12;19.10;58.10
42755;DHT22;28407;51.830;5.684;2023-05-01T10:55:46;19.30;57.90
42755;DHT22;28407;51.830;5.684;2023-05-01T10:58:54;19.20;57.80
42755;DHT22;28407;51.830;5.684;2023-05-01T11:01:33;19.40;57.80
42755;DHT22;28407;51.830;5.684;2023-05-01T11:03:34;19.40;57.60
42755;DHT22;28407;51.830;5.684;2023-05-01T11:08:27;19.50;57.50
42755;DHT22;28407;51.830;5.684;2023-05-01T11:10:28;19.60;57.50
42755;DHT22;28407;51.830;5.684;2023-05-01T11:12:49;19.60;57.50
42755;DHT22;28407;51.830;5.684;2023-05-01T11:17:00;19.70;57.30
42755;DHT22;28407;51.830;5.684;2023-05-01T11:19:01;19.70;57.20
42755;DHT22;28407;51.830;5.684;2023-05-01T11:21:01;19.80;57.10
42755;DHT22;28407;51.830;5.684;2023-05-01T11:23:03;19.90;56.90
42755;DHT22;28407;51.830;5.684;2023-05-01T11:25:16;19.90;56.70
42755;DHT22;28407;51.830;5.684;2023-05-01T11:27:17;20.00;56.50
42755;DHT22;28407;51.830;5.684;2023-05-01T11:29:18;20.00;56.30
42755;DHT22;28407;51.830;5.684;2023-05-01T11:31:19;20.00;56.30
42755;DHT22;28407;51.830;5.684;2023-05-01T11:33:21;20.00;56.20
42755;DHT22;28407;51.830;5.684;2023-05-01T11:35:24;20.00;56.10
42755;DHT22;28407;51.830;5.684;2023-05-01T11:37:39;20.00;56.20
42755;DHT22;28407;51.830;5.684;2023-05-01T11:39:50;20.00;56.20
42755;DHT22;28407;51.830;5.684;2023-05-01T11:42:05;20.00;56.20
42755;DHT22;28407;51.830;5.684;2023-05-01T11:44:06;20.20;56.20
42755;DHT22;28407;51.830;5.684;2023-05-01T11:46:06;20.20;56.10
42755;DHT22;28407;51.830;5.684;2023-05-01T11:48:14;20.30;56.10
42755;DHT22;28407;51.830;5.684;2023-05-01T11:50:18;20.40;55.90
42755;DHT22;28407;51.830;5.684;2023-05-01T11:52:19;20.50;55.80
42755;DHT22;28407;51.830;5.684;2023-05-01T11:54:20;20.60;55.70
42755;DHT22;28407;51.830;5.684;2023-05-01T11:56:21;20.60;55.50
42755;DHT22;28407;51.830;5.684;2023-05-01T11:58:32;20.70;55.40
42755;DHT22;28407;51.830;5.684;2023-05-01T12:00:36;20.80;55.20
42755;DHT22;28407;51.830;5.684;2023-05-01T12:02:37;20.90;55.10
42755;DHT22;28407;51.830;5.684;2023-05-01T12:04:38;21.00;55.00
42755;DHT22;28407;51.830;5.684;2023-05-01T12:06:45;21.10;54.90
42755;DHT22;28407;51.830;5.684;2023-05-01T12:08:49;21.20;54.80
42755;DHT22;28407;51.830;5.684;2023-05-01T12:10:54;21.30;54.70
42755;DHT22;28407;51.830;5.684;2023-05-01T12:12:58;21.40;54.30
42755;DHT22;28407;51.830;5.684;2023-05-01T12:15:00;21.60;54.10
42755;DHT22;28407;51.830;5.684;2023-05-01T12:17:00;21.70;53.70
42755;DHT22;28407;51.830;5.684;2023-05-01T12:19:03;21.80;53.40
42755;DHT22;28407;51.830;5.684;2023-05-01T12:21:04;21.90;53.20
42755;DHT22;28407;51.830;5.684;2023-05-01T12:23:05;21.90;53.00
42755;DHT22;28407;51.830;5.684;2023-05-01T12:25:07;22.00;52.90
42755;DHT22;28407;51.830;5.684;2023-05-01T12:27:07;22.00;52.90
42755;DHT22;28407;51.830;5.684;2023-05-01T12:29:09;22.10;52.80
42755;DHT22;28407;51.830;5.684;2023-05-01T12:31:09;22.20;52.50
42755;DHT22;28407;51.830;5.684;2023-05-01T12:33:15;22.30;52.20
42755;DHT22;28407;51.830;5.684;2023-05-01T12:35:15;22.50;51.80
42755;DHT22;28407;51.830;5.684;2023-05-01T12:37:16;22.50;51.50
42755;DHT22;28407;51.830;5.684;2023-05-01T12:39:17;22.60;51.30
42755;DHT22;28407;51.830;5.684;2023-05-01T12:41:17;22.70;51.00
42755;DHT22;28407;51.830;5.684;2023-05-01T12:43:32;22.80;50.70
42755;DHT22;28407;51.830;5.684;2023-05-01T12:45:39;22.90;50.40
42755;DHT22;28407;51.830;5.684;2023-05-01T12:47:40;23.00;50.00
42755;DHT22;28407;51.830;5.684;2023-05-01T12:49:41;23.00;49.70
42755;DHT22;28407;51.830;5.684;2023-05-01T12:51:46;23.10;49.50
42755;DHT22;28407;51.830;5.684;2023-05-01T12:53:47;23.20;49.10
42755;DHT22;28407;51.830;5.684;2023-05-01T12:55:50;23.20;48.80
42755;DHT22;28407;51.830;5.684;2023-05-01T12:57:52;23.30;48.70
42755;DHT22;28407;51.830;5.684;2023-05-01T13:00:02;23.40;48.50
42755;DHT22;28407;51.830;5.684;2023-05-01T13:02:09;23.40;48.50
42755;DHT22;28407;51.830;5.684;2023-05-01T13:04:10;23.50;48.60
42755;DHT22;28407;51.830;5.684;2023-05-01T13:06:11;23.60;48.50
42755;DHT22;28407;51.830;5.684;2023-05-01T13:08:12;23.70;48.50
42755;DHT22;28407;51.830;5.684;2023-05-01T13:10:14;23.70;48.40
42755;DHT22;28407;51.830;5.684;2023-05-01T13:12:18;23.80;48.30
42755;DHT22;28407;51.830;5.684;2023-05-01T13:14:19;23.90;48.10
42755;DHT22;28407;51.830;5.684;2023-05-01T13:16:20;23.90;48.20
42755;DHT22;28407;51.830;5.684;2023-05-01T13:18:21;24.00;48.20
42755;DHT22;28407;51.830;5.684;2023-05-01T13:20:25;24.00;48.20
42755;DHT22;28407;51.830;5.684;2023-05-01T13:22:34;24.10;48.30